sensor_id;sensor_type;location;lat;lon;timestamp;P1;durP1;ratioP1;P2;durP2;ratioP2
14358;SDS011;7263;49.418;11.064;2023-02-05T00:00:52;12.37;;;9.60;;
14358;SDS011;7263;49.418;11.064;2023-02-05T00:03:18;10.07;;;8.73;;
14358;SDS011;7263;49.418;11.064;2023-02-05T00:05:47;10.67;;;9.07;;
14358;SDS011;7263;49.418;11.064;2023-02-05T00:08:14;10.33;;;9.30;;
14358;SDS011;7263;49.418;11.064;2023-02-05T00:10:40;11.10;;;9.77;;
14358;SDS011;7263;49.418;11.064;2023-02-05T00:13:07;10.73;;;9.10;;
14358;SDS011;7263;49.418;11.064;2023-02-05T00:15:36;10.40;;;8.80;;
14358;SDS011;7263;49.418;11.064;2023-02-05T00:18:05;10.27;;;8.77;;
14358;SDS011;7263;49.418;11.064;2023-02-05T00:20:31;11.87;;;9.67;;
14358;SDS011;7263;49.418;11.064;2023-02-05T00:23:01;10.40;;;9.30;;
14358;SDS011;7263;49.418;11.064;2023-02-05T00:25:28;11.07;;;9.47;;
14358;SDS011;7263;49.418;11.064;2023-02-05T00:27:55;10.97;;;9.87;;
14358;SDS011;7263;49.418;11.064;2023-02-05T00:30:22;11.10;;;10.00;;
14358;SDS011;7263;49.418;11.064;2023-02-05T00:32:49;11.93;;;10.27;;
14358;SDS011;7263;49.418;11.064;2023-02-05T00:35:16;11.77;;;10.00;;
14358;SDS011;7263;49.418;11.064;2023-02-05T00:37:43;12.77;;;11.37;;
14358;SDS011;7263;49.418;11.064;2023-02-05T00:40:12;11.60;;;10.40;;
14358;SDS011;7263;49.418;11.064;2023-02-05T00:42:38;12.50;;;10.93;;
14358;SDS011;7263;49.418;11.064;2023-02-05T00:45:06;11.33;;;10.13;;
14358;SDS011;7263;49.418;11.064;2023-02-05T00:47:33;11.47;;;10.37;;
14358;SDS011;7263;49.418;11.064;2023-02-05T00:50:00;11.17;;;9.93;;
14358;SDS011;7263;49.418;11.064;2023-02-05T00:52:27;11.60;;;10.07;;
14358;SDS011;7263;49.418;11.064;2023-02-05T00:54:54;11.07;;;9.97;;
14358;SDS011;7263;49.418;11.064;2023-02-05T00:57:22;14.67;;;10.57;;
14358;SDS011;7263;49.418;11.064;2023-02-05T00:59:49;11.17;;;10.00;;
14358;SDS011;7263;49.418;11.064;2023-02-05T01:02:17;10.97;;;9.10;;
14358;SDS011;7263;49.418;11.064;2023-02-05T01:04:47;13.03;;;10.50;;
14358;SDS011;7263;49.418;11.064;2023-02-05T01:07:14;10.90;;;9.80;;
14358;SDS011;7263;49.418;11.064;2023-02-05T01:09:41;10.27;;;9.27;;
14358;SDS011;7263;49.418;11.064;2023-02-05T01:12:08;10.57;;;9.10;;
14358;SDS011;7263;49.418;11.064;2023-02-05T01:14:37;11.60;;;10.40;;
14358;SDS011;7263;49.418;11.064;2023-02-05T01:17:03;12.07;;;10.53;;
14358;SDS011;7263;49.418;11.064;2023-02-05T01:19:31;12.60;;;9.77;;
14358;SDS011;7263;49.418;11.064;2023-02-05T01:21:58;11.17;;;9.77;;
14358;SDS011;7263;49.418;11.064;2023-02-05T01:24:25;11.33;;;9.70;;
14358;SDS011;7263;49.418;11.064;2023-02-05T01:26:52;10.23;;;9.17;;
14358;SDS011;7263;49.418;11.064;2023-02-05T01:29:20;11.53;;;9.13;;
14358;SDS011;7263;49.418;11.064;2023-02-05T01:31:48;10.10;;;9.10;;
14358;SDS011;7263;49.418;11.064;2023-02-05T01:34:15;10.17;;;9.10;;
14358;SDS011;7263;49.418;11.064;2023-02-05T01:36:43;10.80;;;8.80;;
14358;SDS011;7263;49.418;11.064;2023-02-05T01:39:10;9.80;;;8.80;;
14358;SDS011;7263;49.418;11.064;2023-02-05T01:41:36;9.40;;;8.00;;
14358;SDS011;7263;49.418;11.064;2023-02-05T01:44:07;9.60;;;8.60;;
14358;SDS011;7263;49.418;11.064;2023-02-05T01:46:35;9.00;;;8.10;;
14358;SDS011;7263;49.418;11.064;2023-02-05T01:49:04;8.77;;;7.87;;
14358;SDS011;7263;49.418;11.064;2023-02-05T01:51:34;9.37;;;8.37;;
14358;SDS011;7263;49.418;11.064;2023-02-05T01:54:03;9.53;;;8.40;;
14358;SDS011;7263;49.418;11.064;2023-02-05T01:56:33;8.70;;;7.90;;
14358;SDS011;7263;49.418;11.064;2023-02-05T01:59:03;8.67;;;7.77;;
14358;SDS011;7263;49.418;11.064;2023-02-05T02:01:33;8.43;;;7.63;;
14358;SDS011;7263;49.418;11.064;2023-02-05T02:04:01;8.37;;;7.50;;
14358;SDS011;7263;49.418;11.064;2023-02-05T02:06:30;9.57;;;8.60;;
14358;SDS011;7263;49.418;11.064;2023-02-05T02:08:58;10.63;;;8.03;;
14358;SDS011;7263;49.418;11.064;2023-02-05T02:11:26;9.63;;;7.87;;
14358;SDS011;7263;49.418;11.064;2023-02-05T02:13:54;8.00;;;7.20;;
14358;SDS011;7263;49.418;11.064;2023-02-05T02:16:24;7.93;;;7.13;;
14358;SDS011;7263;49.418;11.064;2023-02-05T02:18:53;8.30;;;7.50;;
14358;SDS011;7263;49.418;11.064;2023-02-05T02:21:27;8.27;;;6.37;;
14358;SDS011;7263;49.418;11.064;2023-02-05T02:24:21;7.17;;;6.57;;
14358;SDS011;7263;49.418;11.064;2023-02-05T02:27:05;7.27;;;6.57;;
14358;SDS011;7263;49.418;11.064;2023-02-05T02:29:45;7.40;;;6.70;;
14358;SDS011;7263;49.418;11.064;2023-02-05T02:32:17;6.73;;;6.13;;
14358;SDS011;7263;49.418;11.064;2023-02-05T02:34:51;7.17;;;6.40;;
14358;SDS011;7263;49.418;11.064;2023-02-05T02:37:23;6.30;;;5.70;;
14358;SDS011;7263;49.418;11.064;2023-02-05T02:39:56;6.53;;;5.87;;
14358;SDS011;7263;49.418;11.064;2023-02-05T02:42:27;7.13;;;6.43;;
14358;SDS011;7263;49.418;11.064;2023-02-05T02:44:59;6.90;;;6.20;;
14358;SDS011;7263;49.418;11.064;2023-02-05T02:47:28;7.00;;;6.23;;
14358;SDS011;7263;49.418;11.064;2023-02-05T02:50:02;7.07;;;6.37;;
14358;SDS011;7263;49.418;11.064;2023-02-05T02:52:31;6.40;;;5.80;;
14358;SDS011;7263;49.418;11.064;2023-02-05T02:55:01;6.70;;;6.10;;
14358;SDS011;7263;49.418;11.064;2023-02-05T02:57:33;6.50;;;5.90;;
14358;SDS011;7263;49.418;11.064;2023-02-05T03:00:05;7.27;;;6.57;;
14358;SDS011;7263;49.418;11.064;2023-02-05T03:02:36;6.17;;;5.60;;
14358;SDS011;7263;49.418;11.064;2023-02-05T03:05:05;6.40;;;5.80;;
14358;SDS011;7263;49.418;11.064;2023-02-05T03:07:36;6.73;;;5.77;;
14358;SDS011;7263;49.418;11.064;2023-02-05T03:10:08;7.37;;;6.57;;
14358;SDS011;7263;49.418;11.064;2023-02-05T03:12:39;6.70;;;6.00;;
14358;SDS011;7263;49.418;11.064;2023-02-05T03:15:08;6.50;;;5.90;;
14358;SDS011;7263;49.418;11.064;2023-02-05T03:17:35;6.47;;;5.87;;
14358;SDS011;7263;49.418;11.064;2023-02-05T03:20:05;6.00;;;5.50;;
14358;SDS011;7263;49.418;11.064;2023-02-05T03:22:37;6.10;;;5.50;;
14358;SDS011;7263;49.418;11.064;2023-02-05T03:25:04;6.03;;;5.53;;
14358;SDS011;7263;49.418;11.064;2023-02-05T03:27:32;6.00;;;5.50;;
14358;SDS011;7263;49.418;11.064;2023-02-05T03:29:59;6.37;;;5.77;;
14358;SDS011;7263;49.418;11.064;2023-02-05T03:32:32;6.50;;;5.90;;
14358;SDS011;7263;49.418;11.064;2023-02-05T03:35:13;7.93;;;7.23;;
14358;SDS011;7263;49.418;11.064;2023-02-05T03:37:52;6.60;;;5.90;;
14358;SDS011;7263;49.418;11.064;2023-02-05T03:40:30;6.30;;;5.70;;
14358;SDS011;7263;49.418;11.064;2023-02-05T03:43:03;7.07;;;6.43;;
14358;SDS011;7263;49.418;11.064;2023-02-05T03:45:42;6.60;;;6.00;;
14358;SDS011;7263;49.418;11.064;2023-02-05T03:48:19;6.17;;;5.57;;
14358;SDS011;7263;49.418;11.064;2023-02-05T03:50:54;5.90;;;5.40;;
14358;SDS011;7263;49.418;11.064;2023-02-05T03:53:32;6.60;;;5.90;;
14358;SDS011;7263;49.418;11.064;2023-02-05T03:56:04;6.27;;;5.77;;
14358;SDS011;7263;49.418;11.064;2023-02-05T03:58:35;6.27;;;5.67;;
14358;SDS011;7263;49.418;11.064;2023-02-05T04:01:05;6.83;;;6.23;;
14358;SDS011;7263;49.418;11.064;2023-02-05T04:03:35;7.10;;;6.40;;
14358;SDS011;7263;49.418;11.064;2023-02-05T04:06:02;6.43;;;5.83;;
14358;SDS011;7263;49.418;11.064;2023-02-05T04:08:29;6.53;;;5.93;;
14358;SDS011;7263;49.418;11.064;2023-02-05T04:10:56;7.13;;;6.43;;
14358;SDS011;7263;49.418;11.064;2023-02-05T04:13:23;6.80;;;6.10;;
14358;SDS011;7263;49.418;11.064;2023-02-05T04:15:50;6.13;;;5.63;;
14358;SDS011;7263;49.418;11.064;2023-02-05T04:18:17;5.97;;;5.40;;
14358;SDS011;7263;49.418;11.064;2023-02-05T04:20:45;6.23;;;5.63;;
14358;SDS011;7263;49.418;11.064;2023-02-05T04:23:12;5.97;;;5.47;;
14358;SDS011;7263;49.418;11.064;2023-02-05T04:25:39;6.03;;;5.43;;
14358;SDS011;7263;49.418;11.064;2023-02-05T04:28:06;6.00;;;5.47;;
14358;SDS011;7263;49.418;11.064;2023-02-05T04:30:34;6.37;;;5.77;;
14358;SDS011;7263;49.418;11.064;2023-02-05T04:33:02;7.63;;;5.87;;
14358;SDS011;7263;49.418;11.064;2023-02-05T04:35:28;6.47;;;5.80;;
14358;SDS011;7263;49.418;11.064;2023-02-05T04:37:57;6.10;;;5.60;;
14358;SDS011;7263;49.418;11.064;2023-02-05T04:40:23;5.60;;;5.10;;
14358;SDS011;7263;49.418;11.064;2023-02-05T04:42:51;6.37;;;5.77;;
14358;SDS011;7263;49.418;11.064;2023-02-05T04:45:17;6.50;;;5.60;;
14358;SDS011;7263;49.418;11.064;2023-02-05T04:47:44;6.70;;;6.07;;
14358;SDS011;7263;49.418;11.064;2023-02-05T04:50:11;6.87;;;6.17;;
14358;SDS011;7263;49.418;11.064;2023-02-05T04:52:38;6.87;;;6.17;;
14358;SDS011;7263;49.418;11.064;2023-02-05T04:55:06;6.73;;;6.03;;
14358;SDS011;7263;49.418;11.064;2023-02-05T04:57:33;13.83;;;12.43;;
14358;SDS011;7263;49.418;11.064;2023-02-05T05:00:00;10.20;;;9.13;;
14358;SDS011;7263;49.418;11.064;2023-02-05T05:02:27;15.60;;;14.00;;
14358;SDS011;7263;49.418;11.064;2023-02-05T05:04:54;9.77;;;8.77;;
14358;SDS011;7263;49.418;11.064;2023-02-05T05:07:21;10.53;;;9.53;;
14358;SDS011;7263;49.418;11.064;2023-02-05T05:09:48;7.97;;;7.17;;
14358;SDS011;7263;49.418;11.064;2023-02-05T05:12:16;9.43;;;8.53;;
14358;SDS011;7263;49.418;11.064;2023-02-05T05:14:43;11.43;;;10.37;;
14358;SDS011;7263;49.418;11.064;2023-02-05T05:17:09;8.07;;;7.37;;
14358;SDS011;7263;49.418;11.064;2023-02-05T05:19:38;7.70;;;7.00;;
14358;SDS011;7263;49.418;11.064;2023-02-05T05:22:05;9.60;;;8.60;;
14358;SDS011;7263;49.418;11.064;2023-02-05T05:24:32;9.47;;;8.57;;
14358;SDS011;7263;49.418;11.064;2023-02-05T05:26:59;7.30;;;6.70;;
14358;SDS011;7263;49.418;11.064;2023-02-05T05:29:27;9.57;;;8.67;;
14358;SDS011;7263;49.418;11.064;2023-02-05T05:31:54;11.13;;;9.67;;
14358;SDS011;7263;49.418;11.064;2023-02-05T05:34:21;11.50;;;10.40;;
14358;SDS011;7263;49.418;11.064;2023-02-05T05:36:48;9.90;;;8.90;;
14358;SDS011;7263;49.418;11.064;2023-02-05T05:39:15;7.90;;;7.10;;
14358;SDS011;7263;49.418;11.064;2023-02-05T05:41:59;8.37;;;7.47;;
14358;SDS011;7263;49.418;11.064;2023-02-05T05:44:45;7.10;;;6.50;;
14358;SDS011;7263;49.418;11.064;2023-02-05T05:47:15;7.13;;;6.43;;
14358;SDS011;7263;49.418;11.064;2023-02-05T05:49:42;9.97;;;9.03;;
14358;SDS011;7263;49.418;11.064;2023-02-05T05:52:09;10.10;;;8.97;;
14358;SDS011;7263;49.418;11.064;2023-02-05T05:54:36;7.60;;;6.80;;
14358;SDS011;7263;49.418;11.064;2023-02-05T05:57:03;7.80;;;7.10;;
14358;SDS011;7263;49.418;11.064;2023-02-05T05:59:31;6.87;;;6.23;;
14358;SDS011;7263;49.418;11.064;2023-02-05T06:02:00;8.40;;;6.60;;
14358;SDS011;7263;49.418;11.064;2023-02-05T06:04:27;8.63;;;6.30;;
14358;SDS011;7263;49.418;11.064;2023-02-05T06:06:54;7.00;;;6.30;;
14358;SDS011;7263;49.418;11.064;2023-02-05T06:09:21;6.87;;;6.27;;
14358;SDS011;7263;49.418;11.064;2023-02-05T06:11:48;6.77;;;6.13;;
14358;SDS011;7263;49.418;11.064;2023-02-05T06:14:14;6.03;;;5.50;;
14358;SDS011;7263;49.418;11.064;2023-02-05T06:16:41;9.70;;;8.80;;
14358;SDS011;7263;49.418;11.064;2023-02-05T06:19:10;7.13;;;6.50;;
14358;SDS011;7263;49.418;11.064;2023-02-05T06:21:37;7.00;;;6.30;;
14358;SDS011;7263;49.418;11.064;2023-02-05T06:24:04;6.60;;;6.00;;
14358;SDS011;7263;49.418;11.064;2023-02-05T06:26:31;8.33;;;7.53;;
14358;SDS011;7263;49.418;11.064;2023-02-05T06:28:57;8.80;;;8.00;;
14358;SDS011;7263;49.418;11.064;2023-02-05T06:31:27;11.13;;;10.07;;
14358;SDS011;7263;49.418;11.064;2023-02-05T06:33:54;7.97;;;7.17;;
14358;SDS011;7263;49.418;11.064;2023-02-05T06:36:22;7.60;;;6.83;;
14358;SDS011;7263;49.418;11.064;2023-02-05T06:38:49;7.67;;;6.87;;
14358;SDS011;7263;49.418;11.064;2023-02-05T06:41:16;6.80;;;5.93;;
14358;SDS011;7263;49.418;11.064;2023-02-05T06:43:43;6.87;;;6.17;;
14358;SDS011;7263;49.418;11.064;2023-02-05T06:46:10;6.87;;;6.27;;
14358;SDS011;7263;49.418;11.064;2023-02-05T06:48:37;8.97;;;8.07;;
14358;SDS011;7263;49.418;11.064;2023-02-05T06:51:04;25.70;;;23.00;;
14358;SDS011;7263;49.418;11.064;2023-02-05T06:53:32;9.70;;;8.80;;
14358;SDS011;7263;49.418;11.064;2023-02-05T06:55:58;8.13;;;7.40;;
14358;SDS011;7263;49.418;11.064;2023-02-05T06:58:25;7.50;;;6.80;;
14358;SDS011;7263;49.418;11.064;2023-02-05T07:00:52;14.47;;;13.07;;
14358;SDS011;7263;49.418;11.064;2023-02-05T07:03:19;10.97;;;9.87;;
14358;SDS011;7263;49.418;11.064;2023-02-05T07:05:46;9.50;;;8.53;;
14358;SDS011;7263;49.418;11.064;2023-02-05T07:08:13;9.93;;;8.93;;
14358;SDS011;7263;49.418;11.064;2023-02-05T07:10:41;9.33;;;8.27;;
14358;SDS011;7263;49.418;11.064;2023-02-05T07:13:08;8.97;;;8.07;;
14358;SDS011;7263;49.418;11.064;2023-02-05T07:15:34;8.23;;;7.17;;
14358;SDS011;7263;49.418;11.064;2023-02-05T07:18:02;8.27;;;7.47;;
14358;SDS011;7263;49.418;11.064;2023-02-05T07:20:29;12.83;;;11.63;;
14358;SDS011;7263;49.418;11.064;2023-02-05T07:22:56;9.17;;;8.37;;
14358;SDS011;7263;49.418;11.064;2023-02-05T07:25:24;8.60;;;7.80;;
14358;SDS011;7263;49.418;11.064;2023-02-05T07:27:52;8.27;;;7.40;;
14358;SDS011;7263;49.418;11.064;2023-02-05T07:30:19;10.70;;;9.67;;
14358;SDS011;7263;49.418;11.064;2023-02-05T07:32:46;20.43;;;18.33;;
14358;SDS011;7263;49.418;11.064;2023-02-05T07:35:13;12.43;;;10.57;;
14358;SDS011;7263;49.418;11.064;2023-02-05T07:37:40;14.27;;;12.37;;
14358;SDS011;7263;49.418;11.064;2023-02-05T07:40:07;14.63;;;13.20;;
14358;SDS011;7263;49.418;11.064;2023-02-05T07:42:34;10.87;;;9.87;;
14358;SDS011;7263;49.418;11.064;2023-02-05T07:45:03;8.50;;;7.70;;
14358;SDS011;7263;49.418;11.064;2023-02-05T07:47:31;7.17;;;6.47;;
14358;SDS011;7263;49.418;11.064;2023-02-05T07:49:58;5.77;;;5.17;;
14358;SDS011;7263;49.418;11.064;2023-02-05T07:52:25;7.00;;;6.30;;
14358;SDS011;7263;49.418;11.064;2023-02-05T07:54:51;7.40;;;6.37;;
14358;SDS011;7263;49.418;11.064;2023-02-05T07:57:18;7.50;;;6.70;;
14358;SDS011;7263;49.418;11.064;2023-02-05T07:59:45;6.97;;;6.20;;
14358;SDS011;7263;49.418;11.064;2023-02-05T08:02:13;5.50;;;5.00;;
14358;SDS011;7263;49.418;11.064;2023-02-05T08:04:40;6.37;;;5.77;;
14358;SDS011;7263;49.418;11.064;2023-02-05T08:07:07;4.43;;;3.80;;
14358;SDS011;7263;49.418;11.064;2023-02-05T08:09:36;5.53;;;5.03;;
14358;SDS011;7263;49.418;11.064;2023-02-05T08:12:03;4.10;;;3.70;;
14358;SDS011;7263;49.418;11.064;2023-02-05T08:14:30;3.93;;;3.63;;
14358;SDS011;7263;49.418;11.064;2023-02-05T08:16:57;4.03;;;3.63;;
14358;SDS011;7263;49.418;11.064;2023-02-05T08:19:25;3.97;;;3.60;;
14358;SDS011;7263;49.418;11.064;2023-02-05T08:21:52;5.10;;;4.60;;
14358;SDS011;7263;49.418;11.064;2023-02-05T08:24:19;3.97;;;3.57;;
14358;SDS011;7263;49.418;11.064;2023-02-05T08:26:46;4.07;;;3.67;;
14358;SDS011;7263;49.418;11.064;2023-02-05T08:29:13;3.57;;;3.27;;
14358;SDS011;7263;49.418;11.064;2023-02-05T08:31:39;4.87;;;3.87;;
14358;SDS011;7263;49.418;11.064;2023-02-05T08:34:06;3.47;;;3.17;;
14358;SDS011;7263;49.418;11.064;2023-02-05T08:36:34;7.07;;;5.83;;
14358;SDS011;7263;49.418;11.064;2023-02-05T08:39:01;23.07;;;17.60;;
14358;SDS011;7263;49.418;11.064;2023-02-05T08:41:28;4.43;;;3.60;;
14358;SDS011;7263;49.418;11.064;2023-02-05T08:43:55;3.47;;;3.17;;
14358;SDS011;7263;49.418;11.064;2023-02-05T08:46:23;3.93;;;3.40;;
14358;SDS011;7263;49.418;11.064;2023-02-05T08:48:51;3.20;;;2.53;;
14358;SDS011;7263;49.418;11.064;2023-02-05T08:51:19;8.03;;;7.00;;
14358;SDS011;7263;49.418;11.064;2023-02-05T08:53:48;8.57;;;5.73;;
14358;SDS011;7263;49.418;11.064;2023-02-05T08:56:15;9.67;;;8.33;;
14358;SDS011;7263;49.418;11.064;2023-02-05T08:58:42;11.37;;;9.50;;
14358;SDS011;7263;49.418;11.064;2023-02-05T09:01:09;14.70;;;12.37;;
14358;SDS011;7263;49.418;11.064;2023-02-05T09:03:38;9.03;;;7.50;;
14358;SDS011;7263;49.418;11.064;2023-02-05T09:06:05;6.83;;;6.07;;
14358;SDS011;7263;49.418;11.064;2023-02-05T09:08:34;7.70;;;6.43;;
14358;SDS011;7263;49.418;11.064;2023-02-05T09:11:02;3.87;;;3.20;;
14358;SDS011;7263;49.418;11.064;2023-02-05T09:13:29;4.20;;;3.60;;
14358;SDS011;7263;49.418;11.064;2023-02-05T09:15:56;9.93;;;8.57;;
14358;SDS011;7263;49.418;11.064;2023-02-05T09:18:23;19.27;;;16.47;;
14358;SDS011;7263;49.418;11.064;2023-02-05T09:20:50;7.43;;;5.60;;
14358;SDS011;7263;49.418;11.064;2023-02-05T09:23:18;5.80;;;5.17;;
14358;SDS011;7263;49.418;11.064;2023-02-05T09:25:45;7.50;;;5.73;;
14358;SDS011;7263;49.418;11.064;2023-02-05T09:28:13;4.40;;;3.63;;
14358;SDS011;7263;49.418;11.064;2023-02-05T09:30:41;3.90;;;3.50;;
14358;SDS011;7263;49.418;11.064;2023-02-05T09:33:09;4.97;;;4.03;;
14358;SDS011;7263;49.418;11.064;2023-02-05T09:35:37;5.37;;;3.97;;
14358;SDS011;7263;49.418;11.064;2023-02-05T09:38:04;5.07;;;4.00;;
14358;SDS011;7263;49.418;11.064;2023-02-05T09:40:31;4.03;;;3.20;;
14358;SDS011;7263;49.418;11.064;2023-02-05T09:43:04;4.23;;;3.47;;
14358;SDS011;7263;49.418;11.064;2023-02-05T09:45:49;6.83;;;5.97;;
14358;SDS011;7263;49.418;11.064;2023-02-05T09:48:31;6.37;;;5.13;;
14358;SDS011;7263;49.418;11.064;2023-02-05T09:51:17;12.53;;;10.23;;
14358;SDS011;7263;49.418;11.064;2023-02-05T09:53:47;7.20;;;5.70;;
14358;SDS011;7263;49.418;11.064;2023-02-05T09:56:20;8.47;;;6.10;;
14358;SDS011;7263;49.418;11.064;2023-02-05T09:58:49;16.00;;;12.73;;
14358;SDS011;7263;49.418;11.064;2023-02-05T10:01:19;10.90;;;9.30;;
14358;SDS011;7263;49.418;11.064;2023-02-05T10:03:50;11.27;;;10.17;;
14358;SDS011;7263;49.418;11.064;2023-02-05T10:06:28;6.13;;;5.50;;
14358;SDS011;7263;49.418;11.064;2023-02-05T10:09:06;4.30;;;3.90;;
14358;SDS011;7263;49.418;11.064;2023-02-05T10:11:41;3.97;;;3.57;;
14358;SDS011;7263;49.418;11.064;2023-02-05T10:14:17;3.43;;;3.13;;
14358;SDS011;7263;49.418;11.064;2023-02-05T10:16:54;3.47;;;3.10;;
14358;SDS011;7263;49.418;11.064;2023-02-05T10:22:25;7.47;;;6.73;;
14358;SDS011;7263;49.418;11.064;2023-02-05T10:25:07;5.60;;;5.10;;
14358;SDS011;7263;49.418;11.064;2023-02-05T10:28:01;5.00;;;4.50;;
14358;SDS011;7263;49.418;11.064;2023-02-05T10:30:38;7.50;;;6.50;;
14358;SDS011;7263;49.418;11.064;2023-02-05T10:33:15;5.83;;;5.20;;
14358;SDS011;7263;49.418;11.064;2023-02-05T10:35:45;6.40;;;5.70;;
14358;SDS011;7263;49.418;11.064;2023-02-05T10:38:22;5.70;;;4.77;;
14358;SDS011;7263;49.418;11.064;2023-02-05T10:40:50;9.37;;;8.13;;
14358;SDS011;7263;49.418;11.064;2023-02-05T10:43:23;6.57;;;3.77;;
14358;SDS011;7263;49.418;11.064;2023-02-05T10:45:55;10.80;;;9.07;;
14358;SDS011;7263;49.418;11.064;2023-02-05T10:48:25;11.33;;;10.23;;
14358;SDS011;7263;49.418;11.064;2023-02-05T10:51:02;5.33;;;4.00;;
14358;SDS011;7263;49.418;11.064;2023-02-05T10:53:31;4.87;;;4.40;;
14358;SDS011;7263;49.418;11.064;2023-02-05T10:55:59;9.23;;;7.93;;
14358;SDS011;7263;49.418;11.064;2023-02-05T10:58:38;7.67;;;6.10;;
14358;SDS011;7263;49.418;11.064;2023-02-05T11:01:12;6.77;;;5.60;;
14358;SDS011;7263;49.418;11.064;2023-02-05T11:03:44;4.77;;;4.27;;
14358;SDS011;7263;49.418;11.064;2023-02-05T11:06:21;6.40;;;5.47;;
14358;SDS011;7263;49.418;11.064;2023-02-05T11:08:50;5.30;;;3.57;;
14358;SDS011;7263;49.418;11.064;2023-02-05T11:11:22;12.60;;;10.20;;
14358;SDS011;7263;49.418;11.064;2023-02-05T11:13:53;4.07;;;3.60;;
14358;SDS011;7263;49.418;11.064;2023-02-05T11:16:22;3.80;;;3.13;;
14358;SDS011;7263;49.418;11.064;2023-02-05T11:19:02;4.00;;;3.40;;
14358;SDS011;7263;49.418;11.064;2023-02-05T11:21:44;5.70;;;5.10;;
14358;SDS011;7263;49.418;11.064;2023-02-05T11:27:22;7.40;;;6.47;;
14358;SDS011;7263;49.418;11.064;2023-02-05T11:29:52;8.90;;;7.17;;
14358;SDS011;7263;49.418;11.064;2023-02-05T11:32:23;4.87;;;4.37;;
14358;SDS011;7263;49.418;11.064;2023-02-05T11:35:07;5.53;;;5.00;;
14358;SDS011;7263;49.418;11.064;2023-02-05T11:37:41;4.53;;;3.90;;
14358;SDS011;7263;49.418;11.064;2023-02-05T11:40:15;5.30;;;4.80;;
14358;SDS011;7263;49.418;11.064;2023-02-05T11:42:46;5.40;;;4.23;;
14358;SDS011;7263;49.418;11.064;2023-02-05T11:45:16;4.00;;;3.57;;
14358;SDS011;7263;49.418;11.064;2023-02-05T11:47:46;3.87;;;3.47;;
14358;SDS011;7263;49.418;11.064;2023-02-05T11:50:17;5.63;;;5.10;;
14358;SDS011;7263;49.418;11.064;2023-02-05T11:52:49;5.67;;;4.50;;
14358;SDS011;7263;49.418;11.064;2023-02-05T11:55:24;4.23;;;3.33;;
14358;SDS011;7263;49.418;11.064;2023-02-05T11:57:57;10.23;;;7.57;;
14358;SDS011;7263;49.418;11.064;2023-02-05T12:00:26;9.20;;;7.03;;
14358;SDS011;7263;49.418;11.064;2023-02-05T12:03:05;4.53;;;3.83;;
14358;SDS011;7263;49.418;11.064;2023-02-05T12:05:43;6.20;;;5.60;;
14358;SDS011;7263;49.418;11.064;2023-02-05T12:08:23;7.50;;;6.67;;
14358;SDS011;7263;49.418;11.064;2023-02-05T12:11:01;5.30;;;4.73;;
14358;SDS011;7263;49.418;11.064;2023-02-05T12:13:38;4.40;;;3.87;;
14358;SDS011;7263;49.418;11.064;2023-02-05T12:16:16;3.57;;;3.27;;
14358;SDS011;7263;49.418;11.064;2023-02-05T12:18:57;5.27;;;4.77;;
14358;SDS011;7263;49.418;11.064;2023-02-05T12:21:32;5.50;;;4.93;;
14358;SDS011;7263;49.418;11.064;2023-02-05T12:24:12;4.37;;;3.30;;
14358;SDS011;7263;49.418;11.064;2023-02-05T12:27:05;7.43;;;6.73;;
14358;SDS011;7263;49.418;11.064;2023-02-05T12:29:42;6.43;;;4.83;;
14358;SDS011;7263;49.418;11.064;2023-02-05T12:32:20;3.40;;;3.10;;
14358;SDS011;7263;49.418;11.064;2023-02-05T12:35:00;3.63;;;2.60;;
14358;SDS011;7263;49.418;11.064;2023-02-05T12:37:42;3.17;;;2.30;;
14358;SDS011;7263;49.418;11.064;2023-02-05T12:40:28;2.20;;;2.00;;
14358;SDS011;7263;49.418;11.064;2023-02-05T12:43:09;4.43;;;2.40;;
14358;SDS011;7263;49.418;11.064;2023-02-05T12:45:50;2.83;;;2.20;;
14358;SDS011;7263;49.418;11.064;2023-02-05T12:48:28;2.60;;;2.23;;
14358;SDS011;7263;49.418;11.064;2023-02-05T12:51:12;2.97;;;2.10;;
14358;SDS011;7263;49.418;11.064;2023-02-05T12:54:01;2.30;;;2.10;;
14358;SDS011;7263;49.418;11.064;2023-02-05T12:56:44;2.60;;;2.03;;
14358;SDS011;7263;49.418;11.064;2023-02-05T12:59:22;2.30;;;1.93;;
14358;SDS011;7263;49.418;11.064;2023-02-05T13:02:03;1.93;;;1.73;;
14358;SDS011;7263;49.418;11.064;2023-02-05T13:04:36;1.60;;;1.50;;
14358;SDS011;7263;49.418;11.064;2023-02-05T13:07:11;2.20;;;1.70;;
14358;SDS011;7263;49.418;11.064;2023-02-05T13:09:44;1.83;;;1.70;;
14358;SDS011;7263;49.418;11.064;2023-02-05T13:12:15;3.10;;;2.00;;
14358;SDS011;7263;49.418;11.064;2023-02-05T13:14:53;5.57;;;3.27;;
14358;SDS011;7263;49.418;11.064;2023-02-05T13:17:25;3.83;;;2.57;;
14358;SDS011;7263;49.418;11.064;2023-02-05T13:19:56;6.60;;;5.90;;
14358;SDS011;7263;49.418;11.064;2023-02-05T13:22:27;3.27;;;2.43;;
14358;SDS011;7263;49.418;11.064;2023-02-05T13:25:16;2.57;;;1.80;;
14358;SDS011;7263;49.418;11.064;2023-02-05T13:28:09;2.93;;;1.60;;
14358;SDS011;7263;49.418;11.064;2023-02-05T13:31:08;2.67;;;1.80;;
14358;SDS011;7263;49.418;11.064;2023-02-05T13:33:41;2.73;;;1.70;;
14358;SDS011;7263;49.418;11.064;2023-02-05T13:36:13;27.87;;;21.47;;
14358;SDS011;7263;49.418;11.064;2023-02-05T13:39:03;5.73;;;3.70;;
14358;SDS011;7263;49.418;11.064;2023-02-05T13:41:47;2.13;;;1.93;;
14358;SDS011;7263;49.418;11.064;2023-02-05T13:44:46;4.23;;;3.23;;
14358;SDS011;7263;49.418;11.064;2023-02-05T13:47:54;2.83;;;2.17;;
14358;SDS011;7263;49.418;11.064;2023-02-05T13:53:39;3.83;;;3.07;;
14358;SDS011;7263;49.418;11.064;2023-02-05T13:59:10;3.97;;;3.67;;
14358;SDS011;7263;49.418;11.064;2023-02-05T14:01:40;4.27;;;3.90;;
14358;SDS011;7263;49.418;11.064;2023-02-05T14:04:16;4.57;;;4.17;;
14358;SDS011;7263;49.418;11.064;2023-02-05T14:06:49;3.17;;;2.77;;
14358;SDS011;7263;49.418;11.064;2023-02-05T14:09:23;2.63;;;2.17;;
14358;SDS011;7263;49.418;11.064;2023-02-05T14:11:58;3.40;;;3.10;;
14358;SDS011;7263;49.418;11.064;2023-02-05T14:14:27;3.83;;;3.10;;
14358;SDS011;7263;49.418;11.064;2023-02-05T14:16:56;5.33;;;2.70;;
14358;SDS011;7263;49.418;11.064;2023-02-05T14:19:25;3.30;;;2.87;;
14358;SDS011;7263;49.418;11.064;2023-02-05T14:22:31;2.87;;;2.37;;
14358;SDS011;7263;49.418;11.064;2023-02-05T14:25:00;2.80;;;2.60;;
14358;SDS011;7263;49.418;11.064;2023-02-05T14:39:02;2.63;;;2.43;;
14358;SDS011;7263;49.418;11.064;2023-02-05T14:41:45;2.57;;;2.00;;
14358;SDS011;7263;49.418;11.064;2023-02-05T14:44:18;2.13;;;1.93;;
14358;SDS011;7263;49.418;11.064;2023-02-05T14:49:45;4.00;;;2.40;;
14358;SDS011;7263;49.418;11.064;2023-02-05T14:52:22;2.23;;;1.90;;
14358;SDS011;7263;49.418;11.064;2023-02-05T14:54:54;2.23;;;1.80;;
14358;SDS011;7263;49.418;11.064;2023-02-05T14:57:27;3.53;;;1.90;;
14358;SDS011;7263;49.418;11.064;2023-02-05T15:00:00;2.50;;;1.97;;
14358;SDS011;7263;49.418;11.064;2023-02-05T15:02:47;2.83;;;2.10;;
14358;SDS011;7263;49.418;11.064;2023-02-05T15:05:21;2.37;;;1.93;;
14358;SDS011;7263;49.418;11.064;2023-02-05T15:07:59;2.53;;;2.10;;
14358;SDS011;7263;49.418;11.064;2023-02-05T15:10:35;3.13;;;2.20;;
14358;SDS011;7263;49.418;11.064;2023-02-05T15:13:09;3.60;;;2.30;;
14358;SDS011;7263;49.418;11.064;2023-02-05T15:15:39;2.00;;;1.80;;
14358;SDS011;7263;49.418;11.064;2023-02-05T15:18:15;2.10;;;1.90;;
14358;SDS011;7263;49.418;11.064;2023-02-05T15:20:49;2.37;;;2.17;;
14358;SDS011;7263;49.418;11.064;2023-02-05T15:23:21;4.27;;;2.93;;
14358;SDS011;7263;49.418;11.064;2023-02-05T15:25:59;3.73;;;3.30;;
14358;SDS011;7263;49.418;11.064;2023-02-05T15:28:30;4.40;;;2.20;;
14358;SDS011;7263;49.418;11.064;2023-02-05T15:31:08;2.80;;;2.50;;
14358;SDS011;7263;49.418;11.064;2023-02-05T15:33:52;2.37;;;2.17;;